Time;durP1;ratioP1;P1;durP2;ratioP2;P2;SDS_P1;SDS_P2;PMS_P1;PMS_P2;Temp;Humidity;BMP_temperature;BMP_pressure;BME280_temperature;BME280_humidity;BME280_pressure;Samples;Min_cycle;Max_cycle;Signal;HPM_P1;HPM_P2
2021/12/31 00:01:34;;;;;;;11.73;3.05;;;12.60;99.90;;;;;;4806959;29;20058;-85
2021/12/31 00:03:59;;;;;;;20.90;3.72;;;12.60;99.90;;;;;;4790715;29;20051;-85
2021/12/31 00:06:25;;;;;;;16.85;3.28;;;12.60;99.90;;;;;;4805673;29;20078;-84
2021/12/31 00:08:51;;;;;;;16.13;3.25;;;12.60;99.90;;;;;;4806585;29;20046;-84
2021/12/31 00:11:16;;;;;;;16.80;3.47;;;12.60;99.90;;;;;;4806884;29;20108;-85
2021/12/31 00:13:42;;;;;;;13.20;3.25;;;12.60;99.90;;;;;;4805923;29;20058;-85
2021/12/31 00:16:08;;;;;;;13.20;3.20;;;12.50;99.90;;;;;;4806486;29;20083;-84
2021/12/31 00:18:36;;;;;;;14.45;2.72;;;12.60;99.90;;;;;;4806758;29;20066;-85
2021/12/31 00:21:03;;;;;;;12.68;2.72;;;12.50;99.90;;;;;;4806308;29;20066;-84
2021/12/31 00:23:29;;;;;;;19.88;3.38;;;12.50;99.90;;;;;;4806764;29;20059;-84
2021/12/31 00:25:55;;;;;;;18.25;3.42;;;12.40;99.90;;;;;;4806350;29;20130;-84
2021/12/31 00:28:20;;;;;;;19.10;3.25;;;12.50;99.90;;;;;;4790732;29;20097;-84
2021/12/31 00:30:52;;;;;;;20.38;3.03;;;12.50;99.90;;;;;;4790066;29;20062;-84
2021/12/31 00:33:18;;;;;;;21.10;3.33;;;12.40;99.90;;;;;;4805416;29;20137;-84
2021/12/31 00:35:43;;;;;;;16.58;2.95;;;12.40;99.90;;;;;;4806433;29;20125;-85
2021/12/31 00:38:09;;;;;;;19.73;3.92;;;12.40;99.90;;;;;;4806125;29;20058;-84
2021/12/31 00:40:35;;;;;;;19.42;3.40;;;12.40;99.90;;;;;;4805914;29;20073;-84
2021/12/31 00:43:00;;;;;;;16.80;3.30;;;12.40;99.90;;;;;;4804882;29;20133;-84
2021/12/31 00:45:26;;;;;;;15.70;3.17;;;12.40;99.90;;;;;;4806208;29;20105;-85
2021/12/31 00:47:52;;;;;;;15.95;3.38;;;12.40;99.90;;;;;;4805983;29;20160;-84
2021/12/31 00:50:17;;;;;;;15.77;3.33;;;12.40;99.90;;;;;;4789225;29;20046;-85
2021/12/31 00:52:43;;;;;;;15.00;3.28;;;12.40;99.90;;;;;;4806472;29;20051;-84
2021/12/31 00:55:10;;;;;;;15.02;3.35;;;12.40;99.90;;;;;;4804391;29;20089;-84
2021/12/31 00:57:36;;;;;;;20.70;4.07;;;12.30;99.90;;;;;;4804650;29;20490;-84
2021/12/31 01:00:05;;;;;;;14.65;3.72;;;12.30;99.90;;;;;;4805410;29;20050;-84
2021/12/31 01:02:31;;;;;;;13.80;3.33;;;12.30;99.90;;;;;;4790057;29;20141;-84
2021/12/31 01:04:57;;;;;;;19.65;4.30;;;12.30;99.90;;;;;;4805763;29;20134;-84
2021/12/31 01:07:22;;;;;;;13.70;3.20;;;12.30;99.90;;;;;;4805128;29;20043;-84
2021/12/31 01:09:48;;;;;;;18.90;3.58;;;12.30;99.90;;;;;;4790165;29;20390;-84
2021/12/31 01:12:14;;;;;;;16.08;3.67;;;12.30;99.90;;;;;;4804178;29;20414;-84
2021/12/31 01:15:00;;;;;;;25.25;3.90;;;12.30;99.90;;;;;;4804786;29;20138;-85
2021/12/31 01:20:07;;;;;;;15.82;3.83;;;12.30;99.90;;;;;;4805360;29;20120;-84
2021/12/31 01:22:33;;;;;;;19.70;3.50;;;12.30;99.90;;;;;;4804524;29;20050;-84
2021/12/31 01:24:59;;;;;;;24.10;4.10;;;12.20;99.90;;;;;;4789265;29;20051;-84
2021/12/31 01:27:25;;;;;;;20.67;4.10;;;12.20;99.90;;;;;;4805774;29;20062;-84
2021/12/31 01:29:50;;;;;;;22.17;4.20;;;12.20;99.90;;;;;;4805768;29;20409;-85
2021/12/31 01:32:16;;;;;;;18.90;4.10;;;12.20;99.90;;;;;;4805100;29;20046;-84
2021/12/31 01:34:42;;;;;;;21.48;4.22;;;12.20;99.90;;;;;;4805513;29;20047;-84
2021/12/31 01:37:07;;;;;;;16.85;3.45;;;12.10;99.90;;;;;;4804004;29;20050;-84
2021/12/31 01:39:33;;;;;;;19.27;3.83;;;12.20;99.90;;;;;;4804165;29;20184;-84
2021/12/31 01:42:01;;;;;;;17.60;3.58;;;12.20;99.90;;;;;;4803780;29;20066;-84
2021/12/31 01:44:33;;;;;;;14.75;3.20;;;12.20;99.90;;;;;;4804065;29;20059;-84
2021/12/31 01:47:03;;;;;;;23.15;4.28;;;12.10;99.90;;;;;;4805447;29;20406;-84
2021/12/31 01:49:34;;;;;;;23.97;4.00;;;12.10;99.90;;;;;;4804192;29;20057;-84
2021/12/31 01:52:01;;;;;;;15.93;3.70;;;12.10;99.90;;;;;;4804938;29;20067;-84
2021/12/31 01:54:28;;;;;;;16.60;3.80;;;12.10;99.90;;;;;;4804999;29;20051;-84
2021/12/31 01:56:53;;;;;;;14.25;3.42;;;12.10;99.90;;;;;;4805252;29;20058;-84
2021/12/31 01:59:19;;;;;;;14.93;3.63;;;12.10;99.90;;;;;;4788709;29;20274;-84
2021/12/31 02:01:45;;;;;;;15.45;3.78;;;12.10;99.90;;;;;;4805503;29;20401;-84
2021/12/31 02:04:11;;;;;;;21.48;4.32;;;12.10;99.90;;;;;;4759240;29;20066;-84
2021/12/31 02:06:37;;;;;;;15.88;3.60;;;12.20;99.90;;;;;;4804133;29;20042;-84
2021/12/31 02:09:04;;;;;;;15.80;3.20;;;12.20;99.90;;;;;;4804874;29;20053;-84
2021/12/31 02:11:29;;;;;;;18.00;3.63;;;12.20;99.90;;;;;;4803809;29;20061;-83
2021/12/31 02:13:56;;;;;;;16.52;3.60;;;12.20;99.90;;;;;;4798694;29;20056;-84
2021/12/31 02:16:22;;;;;;;12.77;3.20;;;12.30;99.90;;;;;;4786515;29;20406;-84
2021/12/31 02:18:47;;;;;;;13.63;3.30;;;12.30;99.90;;;;;;4785982;30;20047;-83
2021/12/31 02:21:13;;;;;;;18.20;3.05;;;12.40;99.90;;;;;;4786601;29;20051;-83
2021/12/31 02:23:44;;;;;;;15.70;3.10;;;12.40;99.90;;;;;;4787419;29;20141;-84
2021/12/31 02:26:10;;;;;;;15.88;3.13;;;12.40;99.90;;;;;;4785682;30;20063;-83
2021/12/31 02:28:36;;;;;;;12.23;3.08;;;12.40;99.90;;;;;;4786980;30;20096;-84
2021/12/31 02:31:03;;;;;;;14.95;3.30;;;12.50;99.90;;;;;;4786544;29;20047;-83
2021/12/31 02:33:30;;;;;;;13.98;3.08;;;12.50;99.90;;;;;;4786912;29;20051;-84
2021/12/31 02:35:56;;;;;;;11.20;3.05;;;12.50;99.90;;;;;;4786964;29;20051;-84
2021/12/31 02:38:22;;;;;;;13.18;2.63;;;12.60;99.90;;;;;;4786673;29;20055;-83
2021/12/31 02:40:47;;;;;;;13.18;2.90;;;12.60;99.90;;;;;;4786739;29;20424;-84
2021/12/31 02:43:13;;;;;;;9.27;2.80;;;12.60;99.90;;;;;;4786751;29;20422;-83
2021/12/31 02:45:41;;;;;;;12.75;2.65;;;12.70;99.90;;;;;;4786899;29;20116;-83
2021/12/31 02:48:06;;;;;;;12.38;3.17;;;12.70;99.90;;;;;;4770707;30;20492;-84
2021/12/31 02:50:34;;;;;;;12.77;2.95;;;12.70;99.90;;;;;;4786998;29;20471;-83
2021/12/31 02:53:01;;;;;;;13.88;3.00;;;12.80;99.90;;;;;;4770903;30;20116;-84
2021/12/31 02:55:27;;;;;;;10.48;3.08;;;12.70;99.90;;;;;;4785231;30;20047;-84
2021/12/31 02:57:53;;;;;;;12.43;2.83;;;12.70;99.90;;;;;;4786874;29;20076;-83
2021/12/31 03:00:18;;;;;;;10.10;3.20;;;12.70;99.90;;;;;;4786508;29;20136;-83
2021/12/31 03:02:44;;;;;;;14.25;3.00;;;12.80;99.90;;;;;;4786847;29;20059;-83
2021/12/31 03:05:10;;;;;;;11.15;3.00;;;12.80;99.90;;;;;;4784711;30;20440;-83
2021/12/31 03:07:36;;;;;;;11.38;2.95;;;12.80;99.90;;;;;;4770764;30;20163;-83
2021/12/31 03:10:03;;;;;;;10.10;2.90;;;12.80;99.90;;;;;;4770677;30;20091;-83
2021/12/31 03:12:28;;;;;;;11.23;3.00;;;12.80;99.90;;;;;;4787003;29;20422;-83
2021/12/31 03:14:54;;;;;;;10.13;2.80;;;12.80;99.90;;;;;;4789896;29;20051;-84
2021/12/31 03:17:20;;;;;;;11.50;2.42;;;12.80;99.90;;;;;;4788697;29;20124;-83
2021/12/31 03:19:45;;;;;;;11.77;3.03;;;12.80;99.90;;;;;;4773905;30;20430;-83
2021/12/31 03:22:11;;;;;;;10.85;2.60;;;12.80;99.90;;;;;;4789565;29;20414;-83
2021/12/31 03:24:37;;;;;;;9.00;2.70;;;12.80;99.90;;;;;;4788672;30;20427;-84
2021/12/31 03:27:02;;;;;;;9.85;2.60;;;12.80;99.90;;;;;;4789883;29;20067;-84
2021/12/31 03:29:28;;;;;;;9.48;2.92;;;12.80;99.90;;;;;;4789195;29;20058;-83
2021/12/31 03:31:54;;;;;;;11.48;2.80;;;12.80;99.90;;;;;;4789658;29;20051;-83
2021/12/31 03:34:20;;;;;;;11.20;2.28;;;12.80;99.90;;;;;;4803200;29;20208;-83
2021/12/31 03:36:45;;;;;;;7.45;2.70;;;12.80;99.90;;;;;;4804016;29;20160;-84
2021/12/31 03:39:11;;;;;;;9.38;2.50;;;12.80;99.90;;;;;;4787689;30;20047;-84
2021/12/31 03:41:37;;;;;;;12.38;2.38;;;12.70;99.90;;;;;;4773006;30;20094;-84
2021/12/31 03:44:03;;;;;;;11.82;2.70;;;12.70;99.90;;;;;;4789402;29;20522;-83
2021/12/31 03:46:29;;;;;;;7.97;2.35;;;12.70;99.90;;;;;;4773230;30;20059;-84
2021/12/31 03:48:55;;;;;;;11.98;2.75;;;12.70;99.90;;;;;;4789369;30;20058;-84
2021/12/31 03:51:20;;;;;;;10.30;2.35;;;12.70;99.90;;;;;;4802992;29;20059;-83
2021/12/31 03:53:46;;;;;;;10.95;2.30;;;12.60;99.90;;;;;;4787981;30;20490;-84
2021/12/31 03:56:12;;;;;;;11.48;3.17;;;12.70;99.90;;;;;;4788913;29;20057;-84
2021/12/31 03:58:37;;;;;;;8.77;2.30;;;12.70;99.90;;;;;;4802857;29;20133;-83
2021/12/31 04:01:03;;;;;;;8.57;2.15;;;12.70;99.90;;;;;;4789043;29;20098;-83
2021/12/31 04:03:29;;;;;;;8.35;2.25;;;12.70;99.90;;;;;;4787999;29;20051;-83
2021/12/31 04:05:55;;;;;;;12.70;2.50;;;12.70;99.90;;;;;;4788013;30;20062;-83
2021/12/31 04:08:20;;;;;;;10.75;2.72;;;12.70;99.90;;;;;;4788797;29;20376;-83
2021/12/31 04:10:46;;;;;;;10.65;2.90;;;12.60;99.90;;;;;;4789109;29;20051;-83
2021/12/31 04:13:11;;;;;;;7.05;2.50;;;12.70;99.90;;;;;;4789191;29;20047;-83
2021/12/31 04:15:37;;;;;;;8.57;2.67;;;12.70;99.90;;;;;;4788202;29;20047;-83
2021/12/31 04:18:03;;;;;;;8.15;2.35;;;12.70;99.90;;;;;;4788794;29;20104;-83
2021/12/31 04:20:41;;;;;;;8.10;2.47;;;12.80;99.90;;;;;;4788049;29;20098;-83
2021/12/31 04:23:14;;;;;;;15.95;2.47;;;12.80;99.90;;;;;;4788783;29;20055;-83
2021/12/31 04:25:39;;;;;;;7.40;2.25;;;12.80;99.90;;;;;;4787505;29;20474;-83
2021/12/31 04:28:05;;;;;;;7.65;2.53;;;12.80;99.90;;;;;;4787802;30;20047;-83
2021/12/31 04:30:31;;;;;;;8.63;2.38;;;12.80;99.90;;;;;;4787177;29;20055;-83
2021/12/31 04:32:58;;;;;;;8.68;2.53;;;12.80;99.90;;;;;;4787447;30;20051;-84
2021/12/31 04:35:24;;;;;;;8.32;2.17;;;12.80;99.90;;;;;;4787059;29;20507;-83
2021/12/31 04:37:49;;;;;;;8.82;2.60;;;12.80;99.90;;;;;;4787520;30;20138;-84
2021/12/31 04:40:15;;;;;;;6.63;2.10;;;12.70;99.90;;;;;;4788173;29;20498;-84
2021/12/31 04:42:42;;;;;;;8.43;2.40;;;12.80;99.90;;;;;;4787364;29;20056;-83
2021/12/31 04:45:11;;;;;;;9.40;2.67;;;12.80;99.90;;;;;;4787228;30;20063;-83
2021/12/31 04:47:37;;;;;;;8.65;2.60;;;12.80;99.90;;;;;;4788382;29;20054;-83
2021/12/31 04:50:03;;;;;;;8.57;2.45;;;12.80;99.90;;;;;;4787391;30;20057;-83
2021/12/31 04:52:29;;;;;;;10.20;2.58;;;12.80;99.90;;;;;;4801780;29;20055;-83
2021/12/31 04:54:55;;;;;;;7.55;2.30;;;12.80;99.90;;;;;;4786817;30;20062;-83
2021/12/31 04:57:23;;;;;;;6.57;2.33;;;12.80;99.90;;;;;;4801141;29;20183;-83
2021/12/31 04:59:49;;;;;;;6.53;2.35;;;12.80;99.90;;;;;;4787165;30;20061;-83
2021/12/31 05:02:15;;;;;;;8.45;2.20;;;12.80;99.90;;;;;;4771947;30;20133;-83
2021/12/31 05:04:40;;;;;;;8.43;2.63;;;12.70;99.90;;;;;;4787687;30;20048;-84
2021/12/31 05:07:06;;;;;;;5.50;2.47;;;12.70;99.90;;;;;;4772213;30;20058;-84
2021/12/31 05:09:32;;;;;;;9.27;2.70;;;12.70;99.90;;;;;;4786298;30;20047;-84
2021/12/31 05:11:57;;;;;;;7.68;2.65;;;12.70;99.90;;;;;;4787784;29;20112;-84
2021/12/31 05:14:23;;;;;;;7.50;2.88;;;12.70;99.90;;;;;;4786177;30;20096;-84
2021/12/31 05:16:49;;;;;;;5.47;2.50;;;12.70;99.90;;;;;;4787598;29;20059;-84
2021/12/31 05:19:14;;;;;;;5.80;2.80;;;12.70;99.90;;;;;;4787307;29;20094;-84
2021/12/31 05:21:40;;;;;;;10.02;2.90;;;12.70;99.90;;;;;;4787040;29;20138;-85
2021/12/31 05:24:06;;;;;;;5.38;2.80;;;12.60;99.90;;;;;;4801682;29;20474;-85
2021/12/31 05:26:31;;;;;;;6.72;2.88;;;12.60;99.90;;;;;;4786329;30;20534;-88
2021/12/31 05:28:57;;;;;;;5.65;3.03;;;12.60;99.90;;;;;;4787094;29;20475;-85
2021/12/31 05:31:22;;;;;;;6.72;2.95;;;12.60;99.90;;;;;;4786388;30;20055;-84
2021/12/31 05:33:48;;;;;;;3.60;2.80;;;12.50;99.90;;;;;;4787210;29;20047;-84
2021/12/31 05:36:15;;;;;;;7.68;3.03;;;12.50;99.90;;;;;;4787075;29;20048;-84
2021/12/31 05:38:40;;;;;;;7.05;2.80;;;12.50;99.90;;;;;;4787377;29;20401;-86
2021/12/31 05:41:06;;;;;;;5.82;2.90;;;12.60;99.90;;;;;;4787457;29;20055;-84
2021/12/31 05:43:32;;;;;;;4.18;2.38;;;12.70;99.90;;;;;;4786119;30;20113;-84
2021/12/31 05:45:57;;;;;;;8.00;2.92;;;12.70;99.90;;;;;;4787500;29;20394;-84
2021/12/31 05:48:24;;;;;;;5.07;2.40;;;12.70;99.90;;;;;;4801592;29;20092;-84
2021/12/31 05:50:49;;;;;;;6.75;2.63;;;12.70;99.90;;;;;;4785885;30;20109;-84
2021/12/31 05:53:15;;;;;;;6.40;2.58;;;12.80;99.90;;;;;;4801159;29;20560;-84
2021/12/31 05:55:41;;;;;;;6.03;2.80;;;12.70;99.90;;;;;;4786765;29;20184;-84
2021/12/31 05:58:06;;;;;;;6.95;2.53;;;12.80;99.90;;;;;;4801413;29;20062;-85
2021/12/31 06:00:32;;;;;;;7.22;2.83;;;12.80;99.90;;;;;;4785796;30;20083;-84
2021/12/31 06:02:57;;;;;;;5.40;2.53;;;12.80;99.90;;;;;;4786463;30;20043;-84
2021/12/31 06:05:25;;;;;;;5.45;2.10;;;12.80;99.90;;;;;;4787034;29;20054;-84
2021/12/31 06:07:52;;;;;;;6.03;2.50;;;12.90;99.90;;;;;;4800555;29;20090;-84
2021/12/31 06:10:17;;;;;;;6.05;2.42;;;12.90;99.90;;;;;;4786949;30;20220;-85
2021/12/31 06:12:43;;;;;;;4.75;2.22;;;12.90;99.90;;;;;;4786481;29;20152;-85
2021/12/31 06:15:10;;;;;;;5.95;2.33;;;12.90;99.90;;;;;;4787063;29;20047;-85
2021/12/31 06:17:36;;;;;;;6.63;2.60;;;12.90;99.90;;;;;;4785638;30;20055;-85
2021/12/31 06:20:05;;;;;;;4.85;2.20;;;12.90;99.90;;;;;;4786257;29;20065;-85
2021/12/31 06:22:31;;;;;;;5.40;2.60;;;12.90;99.90;;;;;;4786546;29;20047;-84
2021/12/31 06:24:57;;;;;;;4.75;2.40;;;12.90;99.90;;;;;;4771202;30;20406;-86
2021/12/31 06:27:22;;;;;;;6.18;2.10;;;12.90;99.90;;;;;;4786845;29;20134;-85
2021/12/31 06:29:48;;;;;;;5.82;2.22;;;12.90;99.90;;;;;;4785430;30;20402;-84
2021/12/31 06:32:14;;;;;;;4.10;2.35;;;12.90;99.90;;;;;;4785451;30;20414;-84
2021/12/31 06:34:39;;;;;;;6.07;2.30;;;12.90;99.90;;;;;;4786471;30;20055;-85
2021/12/31 06:37:05;;;;;;;6.55;2.47;;;12.90;99.90;;;;;;4785959;30;20063;-84
2021/12/31 06:39:31;;;;;;;6.30;2.15;;;12.90;99.90;;;;;;4787269;29;20478;-84
2021/12/31 06:41:57;;;;;;;3.08;2.17;;;12.90;99.90;;;;;;4784979;30;20112;-85
2021/12/31 06:44:22;;;;;;;4.55;2.00;;;12.80;99.90;;;;;;4785457;30;20063;-85
2021/12/31 06:46:48;;;;;;;5.57;1.98;;;12.80;99.90;;;;;;4800295;29;20043;-84
2021/12/31 06:49:13;;;;;;;6.13;2.03;;;12.70;99.90;;;;;;4790048;29;20054;-83
2021/12/31 06:51:39;;;;;;;5.45;1.92;;;12.70;99.90;;;;;;4790021;29;20467;-84
2021/12/31 06:54:05;;;;;;;5.95;2.03;;;12.70;99.90;;;;;;4804167;29;20107;-85
2021/12/31 06:56:30;;;;;;;5.72;1.90;;;12.60;99.90;;;;;;4790334;30;20062;-85
2021/12/31 06:58:56;;;;;;;4.88;1.90;;;12.60;99.90;;;;;;4803648;29;20052;-87
2021/12/31 07:01:22;;;;;;;5.65;1.90;;;12.60;99.90;;;;;;4790097;29;20541;-86
2021/12/31 07:03:48;;;;;;;4.18;2.10;;;12.60;99.90;;;;;;4788527;30;20062;-86
2021/12/31 07:06:13;;;;;;;5.45;1.95;;;12.60;99.90;;;;;;4789071;29;20062;-86
2021/12/31 07:08:39;;;;;;;3.85;1.80;;;12.60;99.90;;;;;;4788464;30;20469;-86
2021/12/31 07:11:05;;;;;;;3.30;1.70;;;12.60;99.90;;;;;;4788734;30;20055;-85
2021/12/31 07:13:30;;;;;;;7.57;2.30;;;12.60;99.90;;;;;;4790090;29;20055;-85
2021/12/31 07:15:56;;;;;;;5.32;2.10;;;12.60;99.90;;;;;;4789716;29;20170;-85
2021/12/31 07:18:22;;;;;;;4.85;2.20;;;12.60;99.90;;;;;;4790044;29;20370;-85
2021/12/31 07:20:48;;;;;;;6.25;2.15;;;12.70;99.90;;;;;;4789638;29;20051;-85
2021/12/31 07:23:19;;;;;;;7.05;2.05;;;12.60;99.90;;;;;;4788732;30;20395;-84
2021/12/31 07:25:44;;;;;;;5.90;2.00;;;12.60;99.90;;;;;;4789728;29;20108;-84
2021/12/31 07:28:11;;;;;;;4.35;2.10;;;12.50;99.90;;;;;;4788934;30;20056;-85
2021/12/31 07:30:37;;;;;;;6.57;2.15;;;12.50;99.90;;;;;;4788948;30;20047;-85
2021/12/31 07:33:03;;;;;;;5.30;1.90;;;12.50;99.90;;;;;;4789553;29;20058;-84
2021/12/31 07:35:28;;;;;;;4.53;2.13;;;12.50;99.90;;;;;;4803878;29;20047;-85
2021/12/31 07:37:56;;;;;;;2.88;1.73;;;12.40;99.90;;;;;;4789582;29;20051;-88
2021/12/31 07:40:42;;;;;;;4.57;1.92;;;12.40;99.90;;;;;;4789772;29;20481;-84
2021/12/31 07:43:08;;;;;;;4.72;2.03;;;12.40;99.90;;;;;;4788910;30;20130;-86
2021/12/31 07:45:34;;;;;;;6.18;2.13;;;12.30;99.90;;;;;;4789034;29;20115;-86
2021/12/31 07:48:00;;;;;;;3.60;2.00;;;12.30;99.90;;;;;;4803165;29;20059;-87
2021/12/31 07:50:25;;;;;;;5.07;2.08;;;12.20;99.90;;;;;;4803441;29;20572;-85
2021/12/31 07:52:51;;;;;;;4.15;2.03;;;12.20;99.90;;;;;;4789156;29;20051;-84
2021/12/31 07:55:17;;;;;;;3.58;1.65;;;12.20;99.90;;;;;;4788472;30;20181;-84
2021/12/31 07:57:42;;;;;;;7.80;2.47;;;12.30;99.90;;;;;;4803017;29;20055;-83
2021/12/31 08:00:12;;;;;;;3.95;2.10;;;12.30;99.90;;;;;;4789264;29;20060;-84
2021/12/31 08:02:38;;;;;;;4.68;2.03;;;12.40;99.90;;;;;;4789588;29;20454;-86
2021/12/31 08:05:04;;;;;;;4.07;1.92;;;12.40;99.90;;;;;;4787998;29;20144;-84
2021/12/31 08:07:30;;;;;;;4.38;2.20;;;12.50;99.90;;;;;;4789455;29;20062;-84
2021/12/31 08:09:56;;;;;;;4.72;2.08;;;12.50;99.90;;;;;;4788961;29;20094;-85
2021/12/31 08:12:21;;;;;;;5.15;2.30;;;12.50;99.90;;;;;;4788138;30;20515;-85
2021/12/31 08:14:47;;;;;;;5.93;2.38;;;12.50;99.90;;;;;;4788736;29;20114;-84
2021/12/31 08:17:13;;;;;;;5.97;2.42;;;12.60;99.90;;;;;;4789205;30;20047;-85
2021/12/31 08:19:38;;;;;;;6.43;2.40;;;12.60;99.90;;;;;;4788780;29;20062;-85
2021/12/31 08:22:04;;;;;;;5.10;2.50;;;12.60;99.90;;;;;;4788646;29;20400;-83
2021/12/31 08:24:29;;;;;;;4.10;2.25;;;12.50;99.90;;;;;;4788706;29;20062;-84
2021/12/31 08:26:55;;;;;;;6.00;2.38;;;12.60;99.90;;;;;;4788601;29;20100;-83
2021/12/31 08:29:21;;;;;;;7.25;2.50;;;12.60;99.90;;;;;;4788949;29;20055;-84
2021/12/31 08:31:47;;;;;;;6.93;2.45;;;12.70;99.90;;;;;;4788484;29;20092;-83
2021/12/31 08:34:12;;;;;;;4.07;2.55;;;12.70;99.90;;;;;;4788833;30;20458;-84
2021/12/31 08:36:38;;;;;;;6.30;2.70;;;12.80;99.90;;;;;;4788857;29;20043;-84
2021/12/31 08:39:10;;;;;;;6.72;2.70;;;12.80;99.90;;;;;;4802013;29;20516;-89
2021/12/31 08:41:37;;;;;;;4.70;2.70;;;12.80;99.90;;;;;;4787601;30;20063;-87
2021/12/31 08:44:03;;;;;;;6.30;2.53;;;12.80;99.90;;;;;;4786943;30;20101;-87
2021/12/31 08:46:29;;;;;;;5.45;2.33;;;12.80;99.90;;;;;;4787533;30;20083;-86
2021/12/31 08:48:54;;;;;;;4.13;2.40;;;12.80;99.90;;;;;;4786956;30;20090;-88
2021/12/31 08:51:20;;;;;;;5.30;2.38;;;12.90;99.90;;;;;;4788462;29;20172;-86
2021/12/31 08:53:46;;;;;;;5.13;2.15;;;12.90;99.90;;;;;;4802265;29;20501;-85
2021/12/31 08:56:11;;;;;;;7.53;2.50;;;12.90;99.90;;;;;;4771981;30;20071;-85
2021/12/31 08:58:37;;;;;;;4.53;2.10;;;12.80;99.90;;;;;;4788369;30;20491;-82
2021/12/31 09:01:03;;;;;;;4.60;2.15;;;12.80;99.90;;;;;;4802074;29;20062;-85
2021/12/31 09:03:28;;;;;;;5.20;2.38;;;12.80;99.90;;;;;;4788530;29;20119;-83
2021/12/31 09:05:54;;;;;;;6.03;2.53;;;12.80;99.90;;;;;;4787651;30;20488;-82
2021/12/31 09:08:19;;;;;;;4.07;2.28;;;12.80;99.90;;;;;;4788204;29;20059;-82
2021/12/31 09:10:45;;;;;;;5.43;2.25;;;12.80;99.90;;;;;;4787698;29;20414;-82
2021/12/31 09:13:11;;;;;;;5.18;2.45;;;12.80;99.90;;;;;;4802074;29;20067;-82
2021/12/31 09:15:36;;;;;;;4.40;2.45;;;12.80;99.90;;;;;;4788335;29;20384;-82
2021/12/31 09:18:02;;;;;;;4.28;2.30;;;12.80;99.90;;;;;;4787879;29;20410;-82
2021/12/31 09:20:29;;;;;;;5.20;2.30;;;12.80;99.90;;;;;;4787133;30;20078;-83
2021/12/31 09:22:54;;;;;;;6.97;2.72;;;12.70;99.90;;;;;;4787771;30;20055;-82
2021/12/31 09:25:20;;;;;;;4.47;2.47;;;12.70;99.90;;;;;;4802233;29;20057;-82
2021/12/31 09:27:46;;;;;;;6.82;2.58;;;12.80;99.90;;;;;;4786992;30;20043;-83
2021/12/31 09:30:12;;;;;;;6.78;2.70;;;12.80;99.90;;;;;;4801679;29;20077;-83
2021/12/31 09:32:37;;;;;;;4.35;2.22;;;12.80;99.90;;;;;;4788018;29;20051;-82
2021/12/31 09:35:03;;;;;;;4.82;2.50;;;12.90;99.90;;;;;;4771595;30;20073;-82
2021/12/31 09:37:29;;;;;;;4.32;2.20;;;12.90;99.90;;;;;;4801755;29;20051;-83
2021/12/31 09:39:55;;;;;;;6.20;2.40;;;12.90;99.90;;;;;;4787613;29;20112;-82
2021/12/31 09:42:20;;;;;;;7.18;2.63;;;12.90;99.90;;;;;;4787866;29;20065;-82
2021/12/31 09:44:47;;;;;;;6.70;2.67;;;12.90;99.90;;;;;;4787658;29;20051;-82
2021/12/31 09:47:13;;;;;;;6.35;2.50;;;12.80;99.90;;;;;;4786016;30;20120;-83
2021/12/31 09:49:39;;;;;;;9.13;2.60;;;12.90;99.90;;;;;;4787857;29;20052;-82
2021/12/31 09:52:09;;;;;;;5.20;2.40;;;12.80;99.90;;;;;;4787165;29;20047;-82
2021/12/31 09:54:34;;;;;;;4.53;2.30;;;12.80;99.90;;;;;;4771824;30;20157;-82
2021/12/31 09:57:02;;;;;;;4.05;2.28;;;12.80;99.90;;;;;;4771140;30;20183;-82
2021/12/31 09:59:28;;;;;;;5.50;2.58;;;12.70;99.90;;;;;;4787605;30;20055;-83
2021/12/31 10:01:54;;;;;;;7.47;2.67;;;12.70;99.90;;;;;;4786416;30;20047;-83
2021/12/31 10:04:20;;;;;;;6.22;2.58;;;12.80;99.90;;;;;;4786841;29;20391;-82
2021/12/31 10:07:08;;;;;;;5.18;2.70;;;12.70;99.90;;;;;;4786327;30;20104;-82
2021/12/31 10:09:35;;;;;;;6.63;2.63;;;12.80;99.90;;;;;;4771520;30;20055;-83
2021/12/31 10:12:01;;;;;;;4.78;2.45;;;12.70;99.90;;;;;;4800958;29;20055;-83
2021/12/31 10:14:37;;;;;;;5.10;2.88;;;12.70;99.90;;;;;;4787398;29;20047;-83
2021/12/31 10:17:04;;;;;;;5.85;2.80;;;12.70;99.90;;;;;;4786964;29;20055;-83
2021/12/31 10:19:30;;;;;;;5.72;2.60;;;12.60;99.90;;;;;;4786337;30;20057;-83
2021/12/31 10:21:56;;;;;;;7.03;3.10;;;12.50;99.90;;;;;;4787368;29;20502;-82
2021/12/31 10:24:32;;;;;;;7.05;3.03;;;12.50;99.90;;;;;;4789375;30;20055;-82
2021/12/31 10:27:00;;;;;;;7.60;2.95;;;12.50;99.90;;;;;;4791224;29;20146;-82
2021/12/31 10:29:26;;;;;;;4.32;2.80;;;12.40;99.90;;;;;;4760511;30;20047;-82
2021/12/31 10:31:52;;;;;;;5.63;2.90;;;12.40;99.90;;;;;;4790884;30;20051;-83
2021/12/31 10:34:29;;;;;;;4.55;3.10;;;12.40;99.90;;;;;;4774399;30;20055;-82
2021/12/31 10:36:56;;;;;;;5.82;2.88;;;12.40;99.90;;;;;;4789772;30;20051;-83
2021/12/31 10:39:24;;;;;;;6.50;2.78;;;12.40;99.90;;;;;;4790386;29;20437;-83
2021/12/31 10:42:11;;;;;;;4.55;2.80;;;12.30;99.90;;;;;;4790339;29;20063;-83
2021/12/31 10:44:46;;;;;;;6.55;2.88;;;12.30;99.90;;;;;;4789718;30;20395;-83
2021/12/31 10:47:14;;;;;;;5.43;2.75;;;12.30;99.90;;;;;;4789217;30;20108;-82
2021/12/31 10:50:01;;;;;;;8.38;3.28;;;12.30;99.90;;;;;;4774935;30;20063;-82
2021/12/31 10:52:45;;;;;;;5.43;2.60;;;12.30;99.90;;;;;;4789375;29;20138;-83
2021/12/31 10:55:21;;;;;;;5.68;3.03;;;12.30;99.90;;;;;;4790149;29;20054;-83
2021/12/31 10:57:48;;;;;;;5.07;2.70;;;12.30;99.90;;;;;;4789625;30;20043;-83
2021/12/31 11:00:15;;;;;;;7.40;3.03;;;12.30;99.90;;;;;;4789058;30;20063;-82
2021/12/31 11:02:40;;;;;;;6.00;2.67;;;12.30;99.90;;;;;;4789476;30;20507;-82
2021/12/31 11:05:07;;;;;;;5.22;2.90;;;12.30;99.90;;;;;;4788821;30;20086;-82
2021/12/31 11:07:32;;;;;;;6.78;2.60;;;12.30;99.90;;;;;;4790659;29;20093;-82
2021/12/31 11:10:04;;;;;;;7.85;3.13;;;12.30;99.90;;;;;;4789247;30;20051;-82
2021/12/31 11:12:29;;;;;;;6.32;3.00;;;12.20;99.90;;;;;;4774447;30;20440;-82
2021/12/31 11:14:55;;;;;;;5.63;3.22;;;12.20;99.90;;;;;;4789317;29;20104;-83
2021/12/31 11:17:21;;;;;;;8.98;3.47;;;12.10;99.90;;;;;;4788749;30;20059;-82
2021/12/31 11:19:49;;;;;;;7.55;3.90;;;12.10;99.90;;;;;;4774352;30;20094;-83
2021/12/31 11:22:15;;;;;;;5.30;3.15;;;12.10;99.90;;;;;;4788539;30;20059;-83
2021/12/31 11:24:41;;;;;;;7.15;3.75;;;12.10;99.90;;;;;;4774095;30;20065;-83
2021/12/31 11:27:30;;;;;;;7.07;3.35;;;12.10;99.90;;;;;;4790056;29;20138;-83
2021/12/31 11:29:57;;;;;;;7.35;3.50;;;12.10;99.90;;;;;;4788645;30;20059;-83
2021/12/31 11:33:07;;;;;;;6.32;3.45;;;12.00;99.90;;;;;;4788446;30;20059;-83
2021/12/31 11:35:56;;;;;;;6.25;3.30;;;12.00;99.90;;;;;;4805715;29;20107;-82
2021/12/31 11:38:21;;;;;;;5.95;3.30;;;12.00;99.90;;;;;;4789492;30;20059;-83
2021/12/31 11:40:51;;;;;;;7.95;3.40;;;11.90;99.90;;;;;;4789716;29;20051;-82
2021/12/31 11:43:24;;;;;;;6.43;3.40;;;11.90;99.90;;;;;;4788461;30;20464;-83
2021/12/31 11:46:08;;;;;;;7.47;3.67;;;11.90;99.90;;;;;;4788735;30;20284;-83
2021/12/31 11:48:49;;;;;;;9.23;3.75;;;11.90;99.90;;;;;;4789339;29;20051;-83
2021/12/31 11:51:38;;;;;;;10.63;4.50;;;11.90;99.90;;;;;;4789338;29;20607;-83
2021/12/31 11:54:07;;;;;;;12.82;4.55;;;11.80;99.90;;;;;;4788848;30;20054;-83
2021/12/31 11:56:32;;;;;;;12.48;4.85;;;11.80;99.90;;;;;;4789144;29;20228;-83
2021/12/31 11:59:11;;;;;;;14.05;4.93;;;11.80;99.90;;;;;;4789554;29;20567;-83
2021/12/31 12:01:37;;;;;;;10.52;4.22;;;11.70;99.90;;;;;;4789684;29;20055;-83
2021/12/31 12:04:40;;;;;;;15.88;4.57;;;11.80;99.90;;;;;;4789490;29;20053;-83
2021/12/31 12:07:31;;;;;;;10.38;4.13;;;11.70;99.90;;;;;;4789640;29;20070;-83
2021/12/31 12:09:56;;;;;;;;;;;11.70;99.90;;;;;;4789842;29;20104;-83
2021/12/31 12:12:28;;;;;;;11.55;4.70;;;11.60;99.90;;;;;;4788840;29;20026;-83
2021/12/31 12:14:55;;;;;;;10.68;4.55;;;11.60;99.90;;;;;;4789190;29;20078;-83
2021/12/31 12:17:30;;;;;;;12.70;5.53;;;11.60;99.90;;;;;;4788835;29;20052;-83
2021/12/31 12:20:01;;;;;;;11.20;5.07;;;11.60;99.90;;;;;;4789135;29;20072;-83
2021/12/31 12:22:39;;;;;;;12.68;5.90;;;11.60;99.90;;;;;;4788693;29;20051;-83
2021/12/31 12:25:06;;;;;;;14.80;5.72;;;11.60;99.90;;;;;;4789156;29;20399;-83
2021/12/31 12:27:32;;;;;;;22.33;5.95;;;11.60;99.90;;;;;;4788614;29;20051;-83
2021/12/31 12:30:00;;;;;;;12.68;5.18;;;11.50;99.90;;;;;;4803174;29;20506;-83
2021/12/31 12:32:51;;;;;;;9.13;4.93;;;11.60;99.90;;;;;;4786836;30;20088;-83
2021/12/31 12:35:16;;;;;;;8.20;4.28;;;11.60;99.90;;;;;;4788611;29;20055;-83
2021/12/31 12:37:42;;;;;;;6.40;4.30;;;11.50;99.90;;;;;;4802509;29;20055;-83
2021/12/31 12:40:08;;;;;;;8.55;4.55;;;11.50;99.90;;;;;;4802655;29;20418;-83
2021/12/31 12:42:34;;;;;;;7.90;4.40;;;11.50;99.90;;;;;;4786788;30;20101;-82
2021/12/31 12:45:00;;;;;;;8.20;4.22;;;11.50;99.90;;;;;;4788035;29;20475;-83
2021/12/31 12:47:26;;;;;;;7.25;4.15;;;11.50;99.90;;;;;;4787081;30;20051;-83